createdAt,value
2023-02-08T00:02:39.693Z,-0.77
2023-02-08T00:07:41.679Z,-0.71
2023-02-08T00:12:52.259Z,-0.68
2023-02-08T00:17:53.937Z,-0.66
2023-02-08T00:22:56.210Z,-0.62
2023-02-08T00:27:57.918Z,-0.66
2023-02-08T00:33:01.325Z,-0.71
2023-02-08T00:38:03.654Z,-0.68
2023-02-08T00:43:06.887Z,-0.69
2023-02-08T00:48:09.950Z,-0.98
2023-02-08T00:53:12.150Z,-1.05
2023-02-08T00:58:13.772Z,-1.18
2023-02-08T01:03:15.541Z,-1.42
2023-02-08T01:08:17.359Z,-1.55
2023-02-08T01:13:19.346Z,-1.57
2023-02-08T01:18:21.157Z,-1.51
2023-02-08T01:23:22.840Z,-1.42
2023-02-08T01:28:24.489Z,-1.34
2023-02-08T01:33:26.259Z,-1.27
2023-02-08T01:38:28.165Z,-1.32
2023-02-08T01:43:33.132Z,-1.27
2023-02-08T01:48:40.761Z,-1.35
2023-02-08T01:53:44.051Z,-1.52
2023-02-08T01:58:52.207Z,-1.55
2023-02-08T02:03:54.572Z,-1.45
2023-02-08T02:09:07.741Z,-1.37
2023-02-08T02:14:10.416Z,-1.34
2023-02-08T02:19:37.870Z,-1.20
2023-02-08T02:24:48.616Z,-1.10
2023-02-08T02:30:12.831Z,-1.02
2023-02-08T02:35:46.444Z,-0.97
2023-02-08T02:41:15.104Z,-0.93
2023-02-08T02:46:31.961Z,-0.91
2023-02-08T02:52:58.343Z,-0.90
2023-02-08T02:58:02.481Z,-0.86
2023-02-08T03:03:04.186Z,-0.79
2023-02-08T03:08:08.594Z,-0.75
2023-02-08T03:13:17.979Z,-0.79
2023-02-08T03:18:41.281Z,-0.87
2023-02-08T03:23:51.864Z,-1.06
2023-02-08T03:29:15.428Z,-1.31
2023-02-08T03:34:27.019Z,-1.34
2023-02-08T03:39:32.850Z,-1.26
2023-02-08T03:44:41.591Z,-1.29
2023-02-08T03:49:45.459Z,-1.30
2023-02-08T03:54:56.024Z,-1.37
2023-02-08T04:00:02.296Z,-1.39
2023-02-08T04:05:14.215Z,-1.34
2023-02-08T04:10:16.471Z,-1.35
2023-02-08T04:15:18.424Z,-1.35
2023-02-08T04:20:20.449Z,-1.40
2023-02-08T04:25:22.211Z,-1.42
2023-02-08T04:30:23.792Z,-1.40
2023-02-08T04:35:25.718Z,-1.41
2023-02-08T04:40:27.372Z,-1.42
2023-02-08T04:45:32.139Z,-1.36
2023-02-08T04:50:34.185Z,-1.28
2023-02-08T04:55:35.898Z,-1.22
2023-02-08T05:00:37.636Z,-1.16
2023-02-08T05:05:39.474Z,-1.08
2023-02-08T05:10:45.569Z,-1.00
2023-02-08T05:15:47.268Z,-0.97
2023-02-08T05:20:59.744Z,-0.91
2023-02-08T05:26:06.442Z,-0.90
2023-02-08T05:31:11.726Z,-0.88
2023-02-08T05:36:13.489Z,-0.87
2023-02-08T05:41:15.929Z,-0.91
2023-02-08T05:46:17.698Z,-0.96
2023-02-08T05:51:20.852Z,-1.00
2023-02-08T05:56:22.543Z,-1.00
2023-02-08T06:01:24.164Z,-0.94
2023-02-08T06:06:26.257Z,-0.90
2023-02-08T06:11:28.095Z,-0.80
2023-02-08T06:16:29.890Z,-0.68
2023-02-08T06:21:32.010Z,-0.54
2023-02-08T06:26:34.407Z,-0.44
2023-02-08T06:31:37.004Z,-0.38
2023-02-08T06:36:38.725Z,-0.38
2023-02-08T06:41:40.340Z,-0.33
2023-02-08T06:46:42.040Z,-0.21
2023-02-08T06:51:43.760Z,-0.10
2023-02-08T06:56:45.692Z,-0.06
2023-02-08T07:01:47.361Z,-0.10
2023-02-08T07:06:49.877Z,-0.21
2023-02-08T07:11:51.596Z,-0.28
2023-02-08T07:16:56.087Z,-0.24
2023-02-08T07:22:03.459Z,-0.08
2023-02-08T07:27:06.845Z,0.06
2023-02-08T07:32:08.630Z,0.10
2023-02-08T07:37:10.564Z,0.23
2023-02-08T07:42:12.215Z,0.38
2023-02-08T07:47:20.802Z,0.45
2023-02-08T07:52:22.557Z,0.54
2023-02-08T07:57:24.396Z,0.68
2023-02-08T08:02:26.138Z,0.79
2023-02-08T08:07:28.605Z,0.93
2023-02-08T08:12:30.285Z,1.15
2023-02-08T08:17:31.879Z,1.26
2023-02-08T08:22:33.574Z,1.13
2023-02-08T08:27:35.170Z,1.13
2023-02-08T08:32:39.970Z,1.22
2023-02-08T08:37:41.808Z,1.45
2023-02-08T08:42:43.547Z,1.80
2023-02-08T08:47:45.305Z,2.06
2023-02-08T08:52:46.928Z,2.04
2023-02-08T08:57:48.618Z,1.79
2023-02-08T09:02:50.296Z,1.68
2023-02-08T09:07:51.862Z,1.72
2023-02-08T09:12:53.538Z,1.73
2023-02-08T09:17:55.647Z,1.87
2023-02-08T09:22:57.417Z,2.10
2023-02-08T09:27:59.057Z,2.33
2023-02-08T09:33:00.740Z,2.56
2023-02-08T09:38:04.577Z,2.66
2023-02-08T09:43:18.340Z,2.69
2023-02-08T09:48:28.934Z,2.77
2023-02-08T09:53:35.953Z,2.84
2023-02-08T09:58:41.645Z,3.07
2023-02-08T10:03:45.210Z,3.30
2023-02-08T10:08:50.761Z,3.37
2023-02-08T10:14:06.448Z,3.32
2023-02-08T10:19:27.057Z,3.06
2023-02-08T10:24:37.706Z,3.22
2023-02-08T10:30:10.237Z,3.32
2023-02-08T10:35:15.927Z,3.35
2023-02-08T10:40:32.751Z,3.43
2023-02-08T10:46:01.340Z,3.65
2023-02-08T10:51:03.774Z,3.88
2023-02-08T10:56:06.700Z,4.00
2023-02-08T11:01:09.034Z,4.01
2023-02-08T11:06:28.666Z,3.71
2023-02-08T11:11:40.049Z,3.60
2023-02-08T11:16:43.377Z,3.44
2023-02-08T11:21:51.567Z,3.08
2023-02-08T11:26:54.022Z,2.80
2023-02-08T11:31:57.665Z,2.98
2023-02-08T11:37:02.683Z,3.49
2023-02-08T11:42:05.022Z,3.72
2023-02-08T11:47:10.025Z,3.75
2023-02-08T11:52:23.514Z,3.85
2023-02-08T11:57:29.927Z,3.90
2023-02-08T12:02:38.206Z,3.97
2023-02-08T12:07:45.622Z,3.95
2023-02-08T12:13:17.638Z,3.79
2023-02-08T12:18:25.598Z,3.92
2023-02-08T12:23:33.250Z,4.41
2023-02-08T12:28:53.663Z,4.73
2023-02-08T12:34:17.638Z,4.99
2023-02-08T12:39:50.879Z,5.00
2023-02-08T12:45:01.676Z,4.93
2023-02-08T12:50:24.426Z,4.99
2023-02-08T12:55:34.280Z,5.09
2023-02-08T13:00:41.283Z,5.05
2023-02-08T13:06:01.569Z,4.95
2023-02-08T13:11:20.221Z,4.95
2023-02-08T13:16:27.124Z,4.98
2023-02-08T13:21:37.969Z,4.95
2023-02-08T13:26:40.837Z,4.90
2023-02-08T13:31:49.349Z,4.81
2023-02-08T13:36:59.666Z,4.88
2023-02-08T13:42:04.541Z,4.99
2023-02-08T13:47:08.000Z,5.02
2023-02-08T13:52:12.044Z,4.99
2023-02-08T13:57:50.589Z,4.92
2023-02-08T14:03:07.734Z,4.90
2023-02-08T14:08:21.076Z,4.93
2023-02-08T14:13:31.734Z,4.96
2023-02-08T14:18:33.601Z,4.95
2023-02-08T14:23:40.474Z,4.95
2023-02-08T14:28:48.727Z,4.97
2023-02-08T14:33:55.167Z,4.97
2023-02-08T14:39:21.402Z,4.95
2023-02-08T14:44:38.660Z,4.79
2023-02-08T14:49:44.874Z,4.67
2023-02-08T14:55:13.733Z,4.52
2023-02-08T15:00:45.688Z,4.38
2023-02-08T15:06:16.856Z,4.25
2023-02-08T15:11:25.144Z,4.10
2023-02-08T15:16:36.386Z,3.92
2023-02-08T15:21:39.003Z,3.69
2023-02-08T15:26:55.117Z,3.52
2023-02-08T15:31:56.963Z,3.28
2023-02-08T15:36:59.693Z,2.99
2023-02-08T15:42:02.692Z,2.69
2023-02-08T15:47:09.648Z,2.35
2023-02-08T15:52:20.999Z,1.98
2023-02-08T15:57:31.883Z,1.58
2023-02-08T16:02:35.107Z,1.27
2023-02-08T16:07:39.530Z,1.00
2023-02-08T16:12:41.232Z,0.77
2023-02-08T16:17:46.342Z,0.57
2023-02-08T16:22:57.454Z,0.40
2023-02-08T16:27:59.224Z,0.22
2023-02-08T16:33:07.779Z,-0.02
2023-02-08T16:38:11.137Z,-0.24
2023-02-08T16:43:22.985Z,-0.48
2023-02-08T16:48:36.158Z,-0.66
2023-02-08T16:53:42.426Z,-0.87
2023-02-08T16:58:44.396Z,-1.00
2023-02-08T17:03:46.094Z,-1.11
2023-02-08T17:08:47.792Z,-1.19
2023-02-08T17:13:49.776Z,-1.36
2023-02-08T17:18:52.272Z,-1.58
2023-02-08T17:23:53.934Z,-1.70
2023-02-08T17:28:56.561Z,-1.72
2023-02-08T17:34:04.294Z,-1.79
2023-02-08T17:39:06.333Z,-1.92
2023-02-08T17:44:08.405Z,-2.01
2023-02-08T17:49:10.119Z,-2.17
2023-02-08T17:54:12.193Z,-2.29
2023-02-08T17:59:21.035Z,-2.35
2023-02-08T18:04:22.685Z,-2.40
2023-02-08T18:09:24.532Z,-2.46
2023-02-08T18:14:26.212Z,-2.54
2023-02-08T18:19:27.986Z,-2.58
2023-02-08T18:24:31.104Z,-2.64
2023-02-08T18:29:32.767Z,-2.72
2023-02-08T18:34:34.486Z,-2.78
2023-02-08T18:39:36.121Z,-2.86
2023-02-08T18:44:38.791Z,-2.94
2023-02-08T18:49:41.035Z,-3.02
2023-02-08T18:54:42.756Z,-3.09
2023-02-08T18:59:44.316Z,-3.09
2023-02-08T19:04:46.378Z,-3.08
2023-02-08T19:09:48.359Z,-3.08
2023-02-08T19:14:51.183Z,-3.11
2023-02-08T19:19:53.209Z,-3.18
2023-02-08T19:24:55.065Z,-3.28
2023-02-08T19:29:57.082Z,-3.36
2023-02-08T19:34:59.065Z,-3.43
2023-02-08T19:40:01.002Z,-3.53
2023-02-08T19:45:02.842Z,-3.65
2023-02-08T19:50:06.073Z,-3.73
2023-02-08T19:55:07.833Z,-3.79
2023-02-08T20:00:22.558Z,-3.82
2023-02-08T20:05:25.417Z,-3.84
2023-02-08T20:10:27.153Z,-3.87
2023-02-08T20:15:28.903Z,-3.91
2023-02-08T20:20:31.608Z,-3.98
2023-02-08T20:25:34.417Z,-4.01
2023-02-08T20:30:36.146Z,-4.04
2023-02-08T20:35:38.403Z,-4.05
2023-02-08T20:40:40.162Z,-4.09
2023-02-08T20:45:44.332Z,-4.15
2023-02-08T20:50:46.361Z,-4.23
2023-02-08T20:55:48.298Z,-4.33
2023-02-08T21:00:50.282Z,-4.38
2023-02-08T21:05:53.346Z,-4.41
2023-02-08T21:10:55.003Z,-4.50
2023-02-08T21:15:56.580Z,-4.63
2023-02-08T21:20:58.327Z,-4.76
2023-02-08T21:26:01.395Z,-4.81
2023-02-08T21:31:23.955Z,-4.89
2023-02-08T21:36:25.731Z,-4.94
2023-02-08T21:41:30.669Z,-5.02
2023-02-08T21:46:32.634Z,-5.06
2023-02-08T21:51:53.965Z,-5.14
2023-02-08T21:56:57.835Z,-5.28
2023-02-08T22:01:59.545Z,-5.32
2023-02-08T22:07:02.243Z,-5.40
2023-02-08T22:12:05.716Z,-5.55
2023-02-08T22:17:13.361Z,-5.66
2023-02-08T22:22:15.006Z,-5.61
2023-02-08T22:27:16.630Z,-5.45
2023-02-08T22:32:18.340Z,-5.38
2023-02-08T22:37:20.088Z,-5.39
2023-02-08T22:42:22.001Z,-5.37
2023-02-08T22:47:24.001Z,-5.35
2023-02-08T22:52:26.259Z,-5.29
2023-02-08T22:57:28.122Z,-5.28
2023-02-08T23:02:30.073Z,-5.35
2023-02-08T23:07:32.088Z,-5.38
2023-02-08T23:12:33.982Z,-5.37
2023-02-08T23:17:35.986Z,-5.39
2023-02-08T23:22:37.914Z,-5.46
2023-02-08T23:27:39.812Z,-5.51
2023-02-08T23:32:41.943Z,-5.50
2023-02-08T23:37:43.660Z,-5.45
2023-02-08T23:42:45.441Z,-5.45
2023-02-08T23:47:47.173Z,-5.55
2023-02-08T23:52:49.036Z,-5.61
2023-02-08T23:57:50.806Z,-5.66
